Emslake — V2FL4 — position and weather

sailwx.info

Track history (hours):
 
Tides and Currents Weather Stations Pressure Air Temp Water Temp Dewpoint Dewpoint Depression Visibility Wind Speed Wind Dir Waves Ship Positions

Emslake

Last reported at 2015-Apr-28 04:04 UTC. Time now 2015-Apr-28 11:58 UTC.
Position N 57°43' E 017°28'.

Length 100 m; draft 4.2 m.

Type: Cargo ship. MMSI: 305712000.

Date/timePositionNaut miles runAvg speedWind from/ knotsBaromVisibWave heightAir tempDewpointWater temp
2015-Apr-28 04:04N 57°43' E 017°28'6 9.7
2015-Apr-28 03:28N 57°37' E 017°26'9 9.9
2015-Apr-28 02:33N 57°28' E 017°22'10 9.8
2015-Apr-28 01:33N 57°18' E 017°19'1010.0
2015-Apr-28 00:33N 57°09' E 017°16'10 9.9
2015-Apr-27 23:34N 56°59' E 017°13'94 9.3
2015-Apr-27 13:21N 55°41' E 015°36'910.8
2015-Apr-27 12:32N 55°37' E 015°22'1010.5
2015-Apr-27 11:33N 55°31' E 015°07'1110.5
2015-Apr-27 10:33N 55°26' E 014°50'1010.3
2015-Apr-27 09:33N 55°20' E 014°36'1110.4
2015-Apr-27 08:33N 55°12' E 014°24'1110.5
2015-Apr-27 07:29N 55°04' E 014°11'1310.6
2015-Apr-27 06:13N 54°58' E 013°50'710.2
2015-Apr-27 05:33N 54°56' E 013°39'1010.4
2015-Apr-27 04:33N 54°52' E 013°22'1110.7
2015-Apr-27 03:33N 54°49' E 013°04'1110.7
2015-Apr-27 02:33N 54°45' E 012°47'1010.3
2015-Apr-27 01:33N 54°40' E 012°31'1010.5
2015-Apr-27 00:33N 54°34' E 012°17'1010.1
2015-Apr-26 23:33N 54°25' E 012°09'1010.4
2015-Apr-26 22:34N 54°25' E 011°51'1010.3
2015-Apr-26 21:34N 54°28' E 011°34'1010.3
2015-Apr-26 20:34N 54°32' E 011°18'10 9.9
2015-Apr-26 19:34N 54°35' E 011°02'1010.1
2015-Apr-26 18:33N 54°34' E 010°44'10 9.9
2015-Apr-26 17:33N 54°32' E 010°28'10 9.7
2015-Apr-26 16:33N 54°26' E 010°14'5 5.2
2015-Apr-26 15:33N 54°22' E 010°09'5 5.4
2015-Apr-26 14:34N 54°21' E 009°60'8 8.0
2015-Apr-26 13:33N 54°21' E 009°46'8 7.9
2015-Apr-26 12:31N 54°15' E 009°37'8 8.3
2015-Apr-26 11:33N 54°10' E 009°26'8 7.8
2015-Apr-26 10:34N 54°03' E 009°19'8 8.2
2015-Apr-26 09:33N 53°56' E 009°13'3 3.4
2015-Apr-26 08:33N 53°54' E 009°09'2 1.5
2015-Apr-26 07:33N 53°53' E 009°06'7 6.5
2015-Apr-26 06:34N 53°51' E 008°56'1010.4
2015-Apr-26 05:33N 53°55' E 008°40'1111.1
2015-Apr-26 04:33N 53°59' E 008°22'1110.5
2015-Apr-26 03:33N 53°60' E 008°05'1111.2
2015-Apr-26 02:34N 54°05' E 007°48'1211.6
2015-Apr-26 01:34N 54°09' E 007°29'1211.7
2015-Apr-26 00:33N 54°09' E 007°09'1211.7
2015-Apr-25 23:33N 54°09' E 006°49'1611.2
2015-Apr-25 22:05N 54°08' E 006°21'610.9
2015-Apr-25 21:33N 54°07' E 006°11'1110.6
2015-Apr-25 20:33N 54°06' E 005°53'1110.2
2015-Apr-25 19:27N 54°05' E 005°34'910.2
2015-Apr-25 18:33N 54°03' E 005°19'1110.2
2015-Apr-25 17:31N 54°02' E 005°01'  
2015-Apr-21 23:31N 52°58' E 000°19'15 7.5
2015-Apr-21 21:33N 53°10' E 000°33'10 9.7
2015-Apr-21 20:29N 53°20' E 000°40'1010.4
2015-Apr-21 19:33N 53°28' E 000°48'1010.1
2015-Apr-21 18:33N 53°34' E 001°01'10 9.9
2015-Apr-21 17:34N 53°38' E 001°17'8610.2
2015-Apr-21 09:10N 53°59' E 003°38'6 9.8
2015-Apr-21 08:33N 53°59' E 003°48'10 9.9
2015-Apr-21 07:32N 54°01' E 004°05'1010.1
2015-Apr-21 06:33N 54°02' E 004°22'1010.5
2015-Apr-21 05:33N 54°04' E 004°39'1111.2
2015-Apr-21 04:34N 54°05' E 004°58'1211.6
2015-Apr-21 03:33N 54°07' E 005°18'1111.4
2015-Apr-21 02:33N 54°08' E 005°37'1111.2
2015-Apr-21 01:34N 54°10' E 005°56'1110.8
2015-Apr-21 00:34N 54°11' E 006°14'1010.1
2015-Apr-20 23:34N 54°12' E 006°32'9 9.5
2015-Apr-20 22:33N 54°12' E 006°48'9 9.1
2015-Apr-20 21:33N 54°12' E 007°03'9 9.3
2015-Apr-20 20:34N 54°12' E 007°19'10 9.6
2015-Apr-20 19:34N 54°11' E 007°35'1010.2
2015-Apr-20 18:33N 54°06' E 007°51'1211.6
2015-Apr-20 17:34N 54°01' E 008°09'1312.7
2015-Apr-20 16:34N 53°59' E 008°30'1211.9
2015-Apr-20 15:33N 53°51' E 008°46'9 9.4
2015-Apr-20 14:33N 53°52' E 009°02'5 4.9
2015-Apr-20 13:33N 53°54' E 009°09'6 5.6
2015-Apr-20 12:33N 53°58' E 009°15'8 7.7
2015-Apr-20 11:33N 54°05' E 009°19'8 7.8
2015-Apr-20 10:32N 54°11' E 009°29'7 7.4
2015-Apr-20 09:33N 54°16' E 009°38'5 4.9
2015-Apr-20 08:33N 54°20' E 009°43'6 5.6
2015-Apr-20 07:33N 54°22' E 009°52'7 6.9
2015-Apr-20 06:34N 54°22' E 010°04'3 2.6
2015-Apr-20 05:33N 54°22' E 010°09'7 6.9
2015-Apr-20 04:33N 54°28' E 010°15'9 9.1
2015-Apr-20 03:33N 54°33' E 010°28'1010.3
2015-Apr-20 02:33N 54°35' E 010°45'1110.5
2015-Apr-20 01:34N 54°36' E 011°03'1010.2
2015-Apr-20 00:33N 54°34' E 011°21'1111.0
2015-Apr-19 23:33N 54°30' E 011°38'1110.9
2015-Apr-19 22:33N 54°27' E 011°56'9 9.2
2015-Apr-19 21:34N 54°30' E 012°11'1010.1
2015-Apr-19 20:33N 54°39' E 012°21'1110.7
2015-Apr-19 19:33N 54°45' E 012°36'1010.4
2015-Apr-19 18:33N 54°49' E 012°52'1110.4
2015-Apr-19 17:33N 54°53' E 013°09'1110.7
2015-Apr-19 16:33N 54°57' E 013°26'1110.7
2015-Apr-19 15:33N 55°00' E 013°44'1010.5
2015-Apr-19 14:34N 55°04' E 014°01'1210.6
2015-Apr-19 13:25N 55°13' E 014°16'14610.4
2015-Apr-18 23:19N 56°57' E 017°19'810.9
2015-Apr-18 22:33N 57°05' E 017°24'1110.7
2015-Apr-18 21:33N 57°15' E 017°32'  
Track history (hours):
 
Tides and Currents Weather Stations Pressure Air Temp Water Temp Dewpoint Dewpoint Depression Visibility Wind Speed Wind Dir Waves Ship Positions

Emslake

Last reported at 2015-Apr-28 04:04 UTC. Time now 2015-Apr-28 11:58 UTC.
Position N 57°43' E 017°28'.

Length 100 m; draft 4.2 m.

Type: Cargo ship. MMSI: 305712000.

Date/timePositionNaut miles runAvg speedWind from/ knotsBaromVisibWave heightAir tempDewpointWater temp
2015-Apr-28 04:04N 57°43' E 017°28'6 9.7
2015-Apr-28 03:28N 57°37' E 017°26'9 9.9
2015-Apr-28 02:33N 57°28' E 017°22'10 9.8
2015-Apr-28 01:33N 57°18' E 017°19'1010.0
2015-Apr-28 00:33N 57°09' E 017°16'10 9.9
2015-Apr-27 23:34N 56°59' E 017°13'94 9.3
2015-Apr-27 13:21N 55°41' E 015°36'910.8
2015-Apr-27 12:32N 55°37' E 015°22'1010.5
2015-Apr-27 11:33N 55°31' E 015°07'1110.5
2015-Apr-27 10:33N 55°26' E 014°50'1010.3
2015-Apr-27 09:33N 55°20' E 014°36'1110.4
2015-Apr-27 08:33N 55°12' E 014°24'1110.5
2015-Apr-27 07:29N 55°04' E 014°11'1310.6
2015-Apr-27 06:13N 54°58' E 013°50'710.2
2015-Apr-27 05:33N 54°56' E 013°39'1010.4
2015-Apr-27 04:33N 54°52' E 013°22'1110.7
2015-Apr-27 03:33N 54°49' E 013°04'1110.7
2015-Apr-27 02:33N 54°45' E 012°47'1010.3
2015-Apr-27 01:33N 54°40' E 012°31'1010.5
2015-Apr-27 00:33N 54°34' E 012°17'1010.1
2015-Apr-26 23:33N 54°25' E 012°09'1010.4
2015-Apr-26 22:34N 54°25' E 011°51'1010.3
2015-Apr-26 21:34N 54°28' E 011°34'1010.3
2015-Apr-26 20:34N 54°32' E 011°18'10 9.9
2015-Apr-26 19:34N 54°35' E 011°02'1010.1
2015-Apr-26 18:33N 54°34' E 010°44'10 9.9
2015-Apr-26 17:33N 54°32' E 010°28'10 9.7
2015-Apr-26 16:33N 54°26' E 010°14'5 5.2
2015-Apr-26 15:33N 54°22' E 010°09'5 5.4
2015-Apr-26 14:34N 54°21' E 009°60'8 8.0
2015-Apr-26 13:33N 54°21' E 009°46'8 7.9
2015-Apr-26 12:31N 54°15' E 009°37'8 8.3
2015-Apr-26 11:33N 54°10' E 009°26'8 7.8
2015-Apr-26 10:34N 54°03' E 009°19'8 8.2
2015-Apr-26 09:33N 53°56' E 009°13'3 3.4
2015-Apr-26 08:33N 53°54' E 009°09'2 1.5
2015-Apr-26 07:33N 53°53' E 009°06'7 6.5
2015-Apr-26 06:34N 53°51' E 008°56'1010.4
2015-Apr-26 05:33N 53°55' E 008°40'1111.1
2015-Apr-26 04:33N 53°59' E 008°22'1110.5
2015-Apr-26 03:33N 53°60' E 008°05'1111.2
2015-Apr-26 02:34N 54°05' E 007°48'1211.6
2015-Apr-26 01:34N 54°09' E 007°29'1211.7
2015-Apr-26 00:33N 54°09' E 007°09'1211.7
2015-Apr-25 23:33N 54°09' E 006°49'1611.2
2015-Apr-25 22:05N 54°08' E 006°21'610.9
2015-Apr-25 21:33N 54°07' E 006°11'1110.6
2015-Apr-25 20:33N 54°06' E 005°53'1110.2
2015-Apr-25 19:27N 54°05' E 005°34'910.2
2015-Apr-25 18:33N 54°03' E 005°19'1110.2
2015-Apr-25 17:31N 54°02' E 005°01'  
2015-Apr-21 23:31N 52°58' E 000°19'15 7.5
2015-Apr-21 21:33N 53°10' E 000°33'10 9.7
2015-Apr-21 20:29N 53°20' E 000°40'1010.4
2015-Apr-21 19:33N 53°28' E 000°48'1010.1
2015-Apr-21 18:33N 53°34' E 001°01'10 9.9
2015-Apr-21 17:34N 53°38' E 001°17'8610.2
2015-Apr-21 09:10N 53°59' E 003°38'6 9.8
2015-Apr-21 08:33N 53°59' E 003°48'10 9.9
2015-Apr-21 07:32N 54°01' E 004°05'1010.1
2015-Apr-21 06:33N 54°02' E 004°22'1010.5
2015-Apr-21 05:33N 54°04' E 004°39'1111.2
2015-Apr-21 04:34N 54°05' E 004°58'1211.6
2015-Apr-21 03:33N 54°07' E 005°18'1111.4
2015-Apr-21 02:33N 54°08' E 005°37'1111.2
2015-Apr-21 01:34N 54°10' E 005°56'1110.8
2015-Apr-21 00:34N 54°11' E 006°14'1010.1
2015-Apr-20 23:34N 54°12' E 006°32'9 9.5
2015-Apr-20 22:33N 54°12' E 006°48'9 9.1
2015-Apr-20 21:33N 54°12' E 007°03'9 9.3
2015-Apr-20 20:34N 54°12' E 007°19'10 9.6
2015-Apr-20 19:34N 54°11' E 007°35'1010.2
2015-Apr-20 18:33N 54°06' E 007°51'1211.6
2015-Apr-20 17:34N 54°01' E 008°09'1312.7
2015-Apr-20 16:34N 53°59' E 008°30'1211.9
2015-Apr-20 15:33N 53°51' E 008°46'9 9.4
2015-Apr-20 14:33N 53°52' E 009°02'5 4.9
2015-Apr-20 13:33N 53°54' E 009°09'6 5.6
2015-Apr-20 12:33N 53°58' E 009°15'8 7.7
2015-Apr-20 11:33N 54°05' E 009°19'8 7.8
2015-Apr-20 10:32N 54°11' E 009°29'7 7.4
2015-Apr-20 09:33N 54°16' E 009°38'5 4.9
2015-Apr-20 08:33N 54°20' E 009°43'6 5.6
2015-Apr-20 07:33N 54°22' E 009°52'7 6.9
2015-Apr-20 06:34N 54°22' E 010°04'3 2.6
2015-Apr-20 05:33N 54°22' E 010°09'7 6.9
2015-Apr-20 04:33N 54°28' E 010°15'9 9.1
2015-Apr-20 03:33N 54°33' E 010°28'1010.3
2015-Apr-20 02:33N 54°35' E 010°45'1110.5
2015-Apr-20 01:34N 54°36' E 011°03'1010.2
2015-Apr-20 00:33N 54°34' E 011°21'1111.0
2015-Apr-19 23:33N 54°30' E 011°38'1110.9
2015-Apr-19 22:33N 54°27' E 011°56'9 9.2
2015-Apr-19 21:34N 54°30' E 012°11'1010.1
2015-Apr-19 20:33N 54°39' E 012°21'1110.7
2015-Apr-19 19:33N 54°45' E 012°36'1010.4
2015-Apr-19 18:33N 54°49' E 012°52'1110.4
2015-Apr-19 17:33N 54°53' E 013°09'1110.7
2015-Apr-19 16:33N 54°57' E 013°26'1110.7
2015-Apr-19 15:33N 55°00' E 013°44'1010.5
2015-Apr-19 14:34N 55°04' E 014°01'1210.6
2015-Apr-19 13:25N 55°13' E 014°16'14610.4
2015-Apr-18 23:19N 56°57' E 017°19'810.9
2015-Apr-18 22:33N 57°05' E 017°24'1110.7
2015-Apr-18 21:33N 57°15' E 017°32'  

Dump ship's entire track history